sensor_id;sensor_type;location;lat;lon;timestamp;P1;durP1;ratioP1;P2;durP2;ratioP2
48285;SDS011;34102;47.716;10.296;2023-05-18T00:01:48;11.60;;;4.57;;
48285;SDS011;34102;47.716;10.296;2023-05-18T00:04:13;10.55;;;4.78;;
48285;SDS011;34102;47.716;10.296;2023-05-18T00:06:41;8.38;;;4.65;;
48285;SDS011;34102;47.716;10.296;2023-05-18T00:09:06;12.50;;;4.25;;
48285;SDS011;34102;47.716;10.296;2023-05-18T00:11:32;9.35;;;4.38;;
48285;SDS011;34102;47.716;10.296;2023-05-18T00:13:58;9.60;;;4.35;;
48285;SDS011;34102;47.716;10.296;2023-05-18T00:16:24;7.38;;;4.60;;
48285;SDS011;34102;47.716;10.296;2023-05-18T00:18:49;12.70;;;5.22;;
48285;SDS011;34102;47.716;10.296;2023-05-18T00:21:18;9.85;;;4.72;;
48285;SDS011;34102;47.716;10.296;2023-05-18T00:23:44;11.32;;;5.07;;
48285;SDS011;34102;47.716;10.296;2023-05-18T00:26:13;11.75;;;5.57;;
48285;SDS011;34102;47.716;10.296;2023-05-18T00:28:40;8.45;;;4.57;;
48285;SDS011;34102;47.716;10.296;2023-05-18T00:31:05;10.70;;;5.05;;
48285;SDS011;34102;47.716;10.296;2023-05-18T00:33:31;11.85;;;5.07;;
48285;SDS011;34102;47.716;10.296;2023-05-18T00:35:56;8.90;;;4.07;;
48285;SDS011;34102;47.716;10.296;2023-05-18T00:38:23;12.65;;;5.03;;
48285;SDS011;34102;47.716;10.296;2023-05-18T00:40:48;8.80;;;4.97;;
48285;SDS011;34102;47.716;10.296;2023-05-18T00:43:14;11.95;;;5.05;;
48285;SDS011;34102;47.716;10.296;2023-05-18T00:45:39;8.68;;;4.43;;
48285;SDS011;34102;47.716;10.296;2023-05-18T00:48:05;11.30;;;5.03;;
48285;SDS011;34102;47.716;10.296;2023-05-18T00:50:31;10.65;;;4.97;;
48285;SDS011;34102;47.716;10.296;2023-05-18T00:52:56;9.10;;;4.43;;
48285;SDS011;34102;47.716;10.296;2023-05-18T00:55:22;8.82;;;4.40;;
48285;SDS011;34102;47.716;10.296;2023-05-18T00:57:48;7.90;;;4.63;;
48285;SDS011;34102;47.716;10.296;2023-05-18T01:00:14;14.45;;;5.38;;
48285;SDS011;34102;47.716;10.296;2023-05-18T01:02:40;11.23;;;5.22;;
48285;SDS011;34102;47.716;10.296;2023-05-18T01:05:10;12.70;;;5.18;;
48285;SDS011;34102;47.716;10.296;2023-05-18T01:07:39;7.72;;;4.93;;
48285;SDS011;34102;47.716;10.296;2023-05-18T01:10:07;12.77;;;6.20;;
48285;SDS011;34102;47.716;10.296;2023-05-18T01:12:41;9.75;;;5.28;;
48285;SDS011;34102;47.716;10.296;2023-05-18T01:15:09;8.50;;;4.88;;
48285;SDS011;34102;47.716;10.296;2023-05-18T01:28:23;13.88;;;5.78;;
48285;SDS011;34102;47.716;10.296;2023-05-18T01:30:52;14.35;;;6.70;;
48285;SDS011;34102;47.716;10.296;2023-05-18T01:33:17;11.07;;;5.45;;
48285;SDS011;34102;47.716;10.296;2023-05-18T01:35:43;10.88;;;5.63;;
48285;SDS011;34102;47.716;10.296;2023-05-18T01:38:19;9.02;;;5.15;;
48285;SDS011;34102;47.716;10.296;2023-05-18T01:41:30;9.65;;;6.15;;
48285;SDS011;34102;47.716;10.296;2023-05-18T01:43:32;9.63;;;5.40;;
48285;SDS011;34102;47.716;10.296;2023-05-18T01:46:00;10.02;;;5.53;;
48285;SDS011;34102;47.716;10.296;2023-05-18T01:48:26;9.57;;;5.13;;
48285;SDS011;34102;47.716;10.296;2023-05-18T01:50:53;13.07;;;5.90;;
48285;SDS011;34102;47.716;10.296;2023-05-18T01:53:27;10.40;;;5.70;;
48285;SDS011;34102;47.716;10.296;2023-05-18T01:55:54;13.35;;;5.45;;
48285;SDS011;34102;47.716;10.296;2023-05-18T01:58:20;9.10;;;4.90;;
48285;SDS011;34102;47.716;10.296;2023-05-18T02:00:46;16.58;;;6.22;;
48285;SDS011;34102;47.716;10.296;2023-05-18T02:03:12;13.60;;;4.80;;
48285;SDS011;34102;47.716;10.296;2023-05-18T02:05:38;11.25;;;5.38;;
48285;SDS011;34102;47.716;10.296;2023-05-18T02:08:04;10.63;;;5.10;;
48285;SDS011;34102;47.716;10.296;2023-05-18T02:10:29;11.32;;;5.50;;
48285;SDS011;34102;47.716;10.296;2023-05-18T02:12:54;11.82;;;5.63;;
48285;SDS011;34102;47.716;10.296;2023-05-18T02:15:20;11.88;;;5.32;;
48285;SDS011;34102;47.716;10.296;2023-05-18T02:17:47;10.00;;;5.05;;
48285;SDS011;34102;47.716;10.296;2023-05-18T02:20:13;13.07;;;5.28;;
48285;SDS011;34102;47.716;10.296;2023-05-18T02:22:43;10.57;;;5.53;;
48285;SDS011;34102;47.716;10.296;2023-05-18T02:25:08;12.00;;;5.47;;
48285;SDS011;34102;47.716;10.296;2023-05-18T02:27:35;8.43;;;4.43;;
48285;SDS011;34102;47.716;10.296;2023-05-18T02:30:01;9.18;;;4.55;;
48285;SDS011;34102;47.716;10.296;2023-05-18T02:32:28;9.02;;;5.15;;
48285;SDS011;34102;47.716;10.296;2023-05-18T02:34:53;11.10;;;5.40;;
48285;SDS011;34102;47.716;10.296;2023-05-18T02:37:19;10.07;;;4.50;;
48285;SDS011;34102;47.716;10.296;2023-05-18T02:39:47;11.38;;;5.57;;
48285;SDS011;34102;47.716;10.296;2023-05-18T02:42:12;11.65;;;5.13;;
48285;SDS011;34102;47.716;10.296;2023-05-18T02:44:37;12.50;;;5.45;;
48285;SDS011;34102;47.716;10.296;2023-05-18T02:47:03;9.60;;;4.53;;
48285;SDS011;34102;47.716;10.296;2023-05-18T02:49:29;13.50;;;4.72;;
48285;SDS011;34102;47.716;10.296;2023-05-18T02:51:54;8.23;;;4.80;;
48285;SDS011;34102;47.716;10.296;2023-05-18T02:54:19;15.40;;;5.20;;
48285;SDS011;34102;47.716;10.296;2023-05-18T02:56:45;9.77;;;5.43;;
48285;SDS011;34102;47.716;10.296;2023-05-18T02:59:19;14.90;;;5.75;;
48285;SDS011;34102;47.716;10.296;2023-05-18T03:01:45;10.35;;;5.00;;
48285;SDS011;34102;47.716;10.296;2023-05-18T03:04:10;8.25;;;4.95;;
48285;SDS011;34102;47.716;10.296;2023-05-18T03:06:42;8.48;;;5.07;;
48285;SDS011;34102;47.716;10.296;2023-05-18T03:09:10;15.43;;;5.45;;
48285;SDS011;34102;47.716;10.296;2023-05-18T03:11:40;7.95;;;5.25;;
48285;SDS011;34102;47.716;10.296;2023-05-18T03:14:06;14.48;;;4.85;;
48285;SDS011;34102;47.716;10.296;2023-05-18T03:16:31;9.43;;;4.82;;
48285;SDS011;34102;47.716;10.296;2023-05-18T03:18:57;9.70;;;4.80;;
48285;SDS011;34102;47.716;10.296;2023-05-18T03:21:25;9.23;;;5.00;;
48285;SDS011;34102;47.716;10.296;2023-05-18T03:23:59;12.85;;;5.75;;
48285;SDS011;34102;47.716;10.296;2023-05-18T03:26:24;13.82;;;5.43;;
48285;SDS011;34102;47.716;10.296;2023-05-18T03:28:51;10.38;;;5.07;;
48285;SDS011;34102;47.716;10.296;2023-05-18T03:31:16;8.63;;;4.90;;
48285;SDS011;34102;47.716;10.296;2023-05-18T03:33:42;12.30;;;5.03;;
48285;SDS011;34102;47.716;10.296;2023-05-18T03:36:07;11.73;;;5.68;;
48285;SDS011;34102;47.716;10.296;2023-05-18T03:38:34;10.77;;;5.55;;
48285;SDS011;34102;47.716;10.296;2023-05-18T03:41:05;12.50;;;5.43;;
48285;SDS011;34102;47.716;10.296;2023-05-18T03:43:31;10.13;;;5.25;;
48285;SDS011;34102;47.716;10.296;2023-05-18T03:45:57;10.45;;;5.22;;
48285;SDS011;34102;47.716;10.296;2023-05-18T03:48:23;10.48;;;5.82;;
48285;SDS011;34102;47.716;10.296;2023-05-18T03:50:48;10.20;;;4.30;;
48285;SDS011;34102;47.716;10.296;2023-05-18T03:53:14;10.82;;;5.70;;
48285;SDS011;34102;47.716;10.296;2023-05-18T03:55:43;9.93;;;4.50;;
48285;SDS011;34102;47.716;10.296;2023-05-18T03:58:09;10.80;;;5.25;;
48285;SDS011;34102;47.716;10.296;2023-05-18T04:00:34;11.40;;;5.03;;
48285;SDS011;34102;47.716;10.296;2023-05-18T04:02:59;10.30;;;4.35;;
48285;SDS011;34102;47.716;10.296;2023-05-18T04:05:27;8.57;;;4.80;;
48285;SDS011;34102;47.716;10.296;2023-05-18T04:07:53;10.15;;;5.22;;
48285;SDS011;34102;47.716;10.296;2023-05-18T04:10:21;12.27;;;5.47;;
48285;SDS011;34102;47.716;10.296;2023-05-18T04:12:47;6.72;;;4.43;;
48285;SDS011;34102;47.716;10.296;2023-05-18T04:15:14;12.45;;;6.47;;
48285;SDS011;34102;47.716;10.296;2023-05-18T04:17:39;10.52;;;5.13;;
48285;SDS011;34102;47.716;10.296;2023-05-18T04:20:12;10.15;;;4.90;;
48285;SDS011;34102;47.716;10.296;2023-05-18T04:22:47;7.70;;;4.82;;
48285;SDS011;34102;47.716;10.296;2023-05-18T04:25:13;9.32;;;5.68;;
48285;SDS011;34102;47.716;10.296;2023-05-18T04:27:40;7.60;;;4.13;;
48285;SDS011;34102;47.716;10.296;2023-05-18T04:30:10;11.75;;;5.53;;
48285;SDS011;34102;47.716;10.296;2023-05-18T04:32:37;10.82;;;5.05;;
48285;SDS011;34102;47.716;10.296;2023-05-18T04:35:06;9.82;;;3.88;;
48285;SDS011;34102;47.716;10.296;2023-05-18T04:37:32;9.45;;;4.95;;
48285;SDS011;34102;47.716;10.296;2023-05-18T04:39:58;7.25;;;4.65;;
48285;SDS011;34102;47.716;10.296;2023-05-18T04:42:27;6.63;;;3.97;;
48285;SDS011;34102;47.716;10.296;2023-05-18T04:44:53;9.35;;;4.47;;
48285;SDS011;34102;47.716;10.296;2023-05-18T04:47:19;9.95;;;5.13;;
48285;SDS011;34102;47.716;10.296;2023-05-18T04:49:49;8.45;;;4.57;;
48285;SDS011;34102;47.716;10.296;2023-05-18T04:52:16;8.80;;;4.50;;
48285;SDS011;34102;47.716;10.296;2023-05-18T04:54:42;11.38;;;5.30;;
48285;SDS011;34102;47.716;10.296;2023-05-18T04:57:07;10.65;;;5.25;;
48285;SDS011;34102;47.716;10.296;2023-05-18T04:59:33;8.68;;;5.28;;
48285;SDS011;34102;47.716;10.296;2023-05-18T05:02:02;10.68;;;5.10;;
48285;SDS011;34102;47.716;10.296;2023-05-18T05:04:28;11.75;;;5.70;;
48285;SDS011;34102;47.716;10.296;2023-05-18T05:06:53;8.32;;;4.68;;
48285;SDS011;34102;47.716;10.296;2023-05-18T05:09:18;10.48;;;5.88;;
48285;SDS011;34102;47.716;10.296;2023-05-18T05:11:44;11.32;;;4.90;;
48285;SDS011;34102;47.716;10.296;2023-05-18T05:14:10;11.07;;;5.38;;
48285;SDS011;34102;47.716;10.296;2023-05-18T05:16:35;11.40;;;5.57;;
48285;SDS011;34102;47.716;10.296;2023-05-18T05:19:01;7.65;;;4.78;;
48285;SDS011;34102;47.716;10.296;2023-05-18T05:21:27;10.55;;;4.60;;
48285;SDS011;34102;47.716;10.296;2023-05-18T05:23:52;8.57;;;5.03;;
48285;SDS011;34102;47.716;10.296;2023-05-18T05:26:18;10.95;;;5.55;;
48285;SDS011;34102;47.716;10.296;2023-05-18T05:28:44;11.73;;;5.07;;
48285;SDS011;34102;47.716;10.296;2023-05-18T05:31:10;9.40;;;5.45;;
48285;SDS011;34102;47.716;10.296;2023-05-18T05:33:35;10.52;;;5.95;;
48285;SDS011;34102;47.716;10.296;2023-05-18T05:36:01;13.25;;;5.60;;
48285;SDS011;34102;47.716;10.296;2023-05-18T05:38:29;8.95;;;5.20;;
48285;SDS011;34102;47.716;10.296;2023-05-18T05:40:55;9.73;;;5.68;;
48285;SDS011;34102;47.716;10.296;2023-05-18T05:43:20;8.73;;;5.30;;
48285;SDS011;34102;47.716;10.296;2023-05-18T05:45:45;8.88;;;5.50;;
48285;SDS011;34102;47.716;10.296;2023-05-18T05:48:11;10.15;;;5.53;;
48285;SDS011;34102;47.716;10.296;2023-05-18T05:50:36;9.85;;;5.35;;
48285;SDS011;34102;47.716;10.296;2023-05-18T05:53:03;9.15;;;5.18;;
48285;SDS011;34102;47.716;10.296;2023-05-18T05:55:32;10.95;;;5.60;;
48285;SDS011;34102;47.716;10.296;2023-05-18T05:57:58;9.73;;;5.50;;
48285;SDS011;34102;47.716;10.296;2023-05-18T06:00:23;8.75;;;5.25;;
48285;SDS011;34102;47.716;10.296;2023-05-18T06:02:59;9.40;;;6.25;;
48285;SDS011;34102;47.716;10.296;2023-05-18T06:05:32;8.73;;;5.78;;
48285;SDS011;34102;47.716;10.296;2023-05-18T06:07:59;10.50;;;5.55;;
48285;SDS011;34102;47.716;10.296;2023-05-18T06:10:25;9.10;;;5.32;;
48285;SDS011;34102;47.716;10.296;2023-05-18T06:12:51;12.82;;;5.38;;
48285;SDS011;34102;47.716;10.296;2023-05-18T06:15:17;13.70;;;5.90;;
48285;SDS011;34102;47.716;10.296;2023-05-18T06:17:43;10.60;;;4.60;;
48285;SDS011;34102;47.716;10.296;2023-05-18T06:20:10;5.90;;;4.68;;
48285;SDS011;34102;47.716;10.296;2023-05-18T06:22:36;11.82;;;5.45;;
48285;SDS011;34102;47.716;10.296;2023-05-18T06:25:22;9.88;;;6.05;;
48285;SDS011;34102;47.716;10.296;2023-05-18T06:28:09;10.32;;;5.47;;
48285;SDS011;34102;47.716;10.296;2023-05-18T06:30:41;10.23;;;5.15;;
48285;SDS011;34102;47.716;10.296;2023-05-18T06:33:15;9.77;;;6.53;;
48285;SDS011;34102;47.716;10.296;2023-05-18T06:35:40;9.35;;;5.60;;
48285;SDS011;34102;47.716;10.296;2023-05-18T06:38:06;14.48;;;6.10;;
48285;SDS011;34102;47.716;10.296;2023-05-18T06:40:32;12.80;;;5.75;;
48285;SDS011;34102;47.716;10.296;2023-05-18T06:42:58;9.63;;;5.47;;
48285;SDS011;34102;47.716;10.296;2023-05-18T06:45:29;13.25;;;6.28;;
48285;SDS011;34102;47.716;10.296;2023-05-18T06:48:07;9.93;;;5.63;;
48285;SDS011;34102;47.716;10.296;2023-05-18T06:50:32;10.45;;;5.63;;
48285;SDS011;34102;47.716;10.296;2023-05-18T06:52:58;11.65;;;6.65;;
48285;SDS011;34102;47.716;10.296;2023-05-18T06:55:23;10.75;;;6.18;;
48285;SDS011;34102;47.716;10.296;2023-05-18T06:57:49;12.93;;;6.70;;
48285;SDS011;34102;47.716;10.296;2023-05-18T07:00:17;12.25;;;5.18;;
48285;SDS011;34102;47.716;10.296;2023-05-18T07:02:42;8.60;;;4.70;;
48285;SDS011;34102;47.716;10.296;2023-05-18T07:05:10;13.90;;;5.20;;
48285;SDS011;34102;47.716;10.296;2023-05-18T07:07:36;11.75;;;5.40;;
48285;SDS011;34102;47.716;10.296;2023-05-18T07:10:01;11.90;;;5.47;;
48285;SDS011;34102;47.716;10.296;2023-05-18T07:14:53;8.90;;;5.28;;
48285;SDS011;34102;47.716;10.296;2023-05-18T07:17:19;10.27;;;4.70;;
48285;SDS011;34102;47.716;10.296;2023-05-18T07:19:44;13.10;;;5.20;;
48285;SDS011;34102;47.716;10.296;2023-05-18T07:22:10;10.40;;;4.85;;
48285;SDS011;34102;47.716;10.296;2023-05-18T07:24:35;10.02;;;4.50;;
48285;SDS011;34102;47.716;10.296;2023-05-18T07:27:00;6.40;;;4.30;;
48285;SDS011;34102;47.716;10.296;2023-05-18T07:29:26;7.65;;;4.82;;
48285;SDS011;34102;47.716;10.296;2023-05-18T07:31:51;7.43;;;4.35;;
48285;SDS011;34102;47.716;10.296;2023-05-18T07:34:17;5.90;;;3.85;;
48285;SDS011;34102;47.716;10.296;2023-05-18T07:36:43;7.63;;;4.03;;
48285;SDS011;34102;47.716;10.296;2023-05-18T07:39:09;7.85;;;4.43;;
48285;SDS011;34102;47.716;10.296;2023-05-18T07:41:41;7.40;;;4.07;;
48285;SDS011;34102;47.716;10.296;2023-05-18T07:44:07;7.97;;;4.50;;
48285;SDS011;34102;47.716;10.296;2023-05-18T07:46:32;11.70;;;5.72;;
48285;SDS011;34102;47.716;10.296;2023-05-18T07:48:57;7.20;;;4.00;;
48285;SDS011;34102;47.716;10.296;2023-05-18T07:51:23;8.15;;;3.75;;
48285;SDS011;34102;47.716;10.296;2023-05-18T07:53:48;6.72;;;3.30;;
48285;SDS011;34102;47.716;10.296;2023-05-18T07:56:13;8.73;;;4.00;;
48285;SDS011;34102;47.716;10.296;2023-05-18T07:58:39;5.30;;;3.15;;
48285;SDS011;34102;47.716;10.296;2023-05-18T08:01:05;6.60;;;3.05;;
48285;SDS011;34102;47.716;10.296;2023-05-18T08:03:30;4.93;;;3.10;;
48285;SDS011;34102;47.716;10.296;2023-05-18T08:05:57;8.27;;;3.08;;
48285;SDS011;34102;47.716;10.296;2023-05-18T08:08:22;7.63;;;3.05;;
48285;SDS011;34102;47.716;10.296;2023-05-18T08:10:49;6.38;;;2.33;;
48285;SDS011;34102;47.716;10.296;2023-05-18T08:13:15;5.50;;;2.10;;
48285;SDS011;34102;47.716;10.296;2023-05-18T08:15:40;5.03;;;2.30;;
48285;SDS011;34102;47.716;10.296;2023-05-18T08:18:05;5.05;;;1.98;;
48285;SDS011;34102;47.716;10.296;2023-05-18T08:20:34;3.67;;;1.83;;
48285;SDS011;34102;47.716;10.296;2023-05-18T08:23:00;3.83;;;1.75;;
48285;SDS011;34102;47.716;10.296;2023-05-18T08:25:25;6.38;;;2.33;;
48285;SDS011;34102;47.716;10.296;2023-05-18T08:27:51;4.40;;;2.15;;
48285;SDS011;34102;47.716;10.296;2023-05-18T08:30:17;4.93;;;2.28;;
48285;SDS011;34102;47.716;10.296;2023-05-18T08:32:46;2.90;;;1.77;;
48285;SDS011;34102;47.716;10.296;2023-05-18T08:35:11;6.25;;;1.85;;
48285;SDS011;34102;47.716;10.296;2023-05-18T08:37:36;3.75;;;1.90;;
48285;SDS011;34102;47.716;10.296;2023-05-18T08:40:02;3.13;;;1.55;;
48285;SDS011;34102;47.716;10.296;2023-05-18T08:45:09;4.65;;;1.85;;
48285;SDS011;34102;47.716;10.296;2023-05-18T08:47:37;4.30;;;2.20;;
48285;SDS011;34102;47.716;10.296;2023-05-18T08:50:05;5.53;;;1.92;;
48285;SDS011;34102;47.716;10.296;2023-05-18T08:52:34;6.85;;;2.25;;
48285;SDS011;34102;47.716;10.296;2023-05-18T08:55:06;4.47;;;1.65;;
48285;SDS011;34102;47.716;10.296;2023-05-18T08:57:33;5.50;;;1.65;;
48285;SDS011;34102;47.716;10.296;2023-05-18T08:59:59;4.90;;;2.35;;
48285;SDS011;34102;47.716;10.296;2023-05-18T09:02:25;7.40;;;2.10;;
48285;SDS011;34102;47.716;10.296;2023-05-18T09:04:50;4.05;;;2.30;;
48285;SDS011;34102;47.716;10.296;2023-05-18T09:07:17;5.40;;;1.98;;
48285;SDS011;34102;47.716;10.296;2023-05-18T09:09:44;4.35;;;2.45;;
48285;SDS011;34102;47.716;10.296;2023-05-18T09:12:10;6.65;;;2.60;;
48285;SDS011;34102;47.716;10.296;2023-05-18T09:14:35;3.40;;;1.55;;
48285;SDS011;34102;47.716;10.296;2023-05-18T09:17:01;5.97;;;1.90;;
48285;SDS011;34102;47.716;10.296;2023-05-18T09:19:27;4.90;;;1.30;;
48285;SDS011;34102;47.716;10.296;2023-05-18T09:21:52;5.28;;;1.73;;
48285;SDS011;34102;47.716;10.296;2023-05-18T09:24:21;4.75;;;1.83;;
48285;SDS011;34102;47.716;10.296;2023-05-18T09:26:46;5.95;;;1.70;;
48285;SDS011;34102;47.716;10.296;2023-05-18T09:29:16;5.75;;;1.70;;
48285;SDS011;34102;47.716;10.296;2023-05-18T09:31:44;3.83;;;1.60;;
48285;SDS011;34102;47.716;10.296;2023-05-18T09:34:10;5.03;;;1.50;;
48285;SDS011;34102;47.716;10.296;2023-05-18T09:36:36;3.35;;;1.40;;
48285;SDS011;34102;47.716;10.296;2023-05-18T09:39:06;3.80;;;1.65;;
48285;SDS011;34102;47.716;10.296;2023-05-18T09:41:31;3.38;;;1.65;;
48285;SDS011;34102;47.716;10.296;2023-05-18T09:43:57;3.33;;;1.30;;
48285;SDS011;34102;47.716;10.296;2023-05-18T09:46:22;3.45;;;1.55;;
48285;SDS011;34102;47.716;10.296;2023-05-18T09:48:49;4.18;;;1.70;;
48285;SDS011;34102;47.716;10.296;2023-05-18T09:51:15;4.90;;;1.50;;
48285;SDS011;34102;47.716;10.296;2023-05-18T09:53:48;4.53;;;1.38;;
48285;SDS011;34102;47.716;10.296;2023-05-18T09:56:17;5.80;;;1.60;;
48285;SDS011;34102;47.716;10.296;2023-05-18T09:58:42;3.72;;;1.65;;
48285;SDS011;34102;47.716;10.296;2023-05-18T10:01:09;4.10;;;1.48;;
48285;SDS011;34102;47.716;10.296;2023-05-18T10:03:35;3.28;;;1.70;;
48285;SDS011;34102;47.716;10.296;2023-05-18T10:08:30;3.05;;;1.60;;
48285;SDS011;34102;47.716;10.296;2023-05-18T10:10:56;2.90;;;1.77;;
48285;SDS011;34102;47.716;10.296;2023-05-18T10:13:24;4.70;;;1.90;;
48285;SDS011;34102;47.716;10.296;2023-05-18T10:15:54;3.15;;;1.50;;
48285;SDS011;34102;47.716;10.296;2023-05-18T10:18:20;6.90;;;1.40;;
48285;SDS011;34102;47.716;10.296;2023-05-18T10:20:47;3.70;;;1.65;;
48285;SDS011;34102;47.716;10.296;2023-05-18T10:23:12;3.38;;;1.35;;
48285;SDS011;34102;47.716;10.296;2023-05-18T10:25:38;4.28;;;1.40;;
48285;SDS011;34102;47.716;10.296;2023-05-18T10:28:06;4.32;;;1.52;;
48285;SDS011;34102;47.716;10.296;2023-05-18T10:30:34;3.65;;;1.10;;
48285;SDS011;34102;47.716;10.296;2023-05-18T10:33:00;4.90;;;1.90;;
48285;SDS011;34102;47.716;10.296;2023-05-18T10:35:27;3.22;;;1.33;;
48285;SDS011;34102;47.716;10.296;2023-05-18T10:37:52;3.28;;;1.40;;
48285;SDS011;34102;47.716;10.296;2023-05-18T10:40:18;3.42;;;1.67;;
48285;SDS011;34102;47.716;10.296;2023-05-18T11:28:42;5.72;;;2.15;;
48285;SDS011;34102;47.716;10.296;2023-05-18T11:31:07;4.13;;;1.80;;
48285;SDS011;34102;47.716;10.296;2023-05-18T11:33:41;3.50;;;1.60;;
48285;SDS011;34102;47.716;10.296;2023-05-18T11:36:13;6.00;;;2.08;;
48285;SDS011;34102;47.716;10.296;2023-05-18T11:41:34;4.22;;;1.35;;
48285;SDS011;34102;47.716;10.296;2023-05-18T11:44:03;3.13;;;1.40;;
48285;SDS011;34102;47.716;10.296;2023-05-18T11:46:35;3.28;;;1.45;;
48285;SDS011;34102;47.716;10.296;2023-05-18T11:49:03;2.72;;;1.50;;
48285;SDS011;34102;47.716;10.296;2023-05-18T11:51:31;6.53;;;2.17;;
48285;SDS011;34102;47.716;10.296;2023-05-18T11:53:57;3.03;;;1.58;;
48285;SDS011;34102;47.716;10.296;2023-05-18T11:56:23;3.58;;;1.42;;
48285;SDS011;34102;47.716;10.296;2023-05-18T12:01:39;3.85;;;1.45;;
48285;SDS011;34102;47.716;10.296;2023-05-18T12:04:05;4.43;;;2.00;;
48285;SDS011;34102;47.716;10.296;2023-05-18T12:06:31;3.08;;;1.65;;
48285;SDS011;34102;47.716;10.296;2023-05-18T12:08:57;4.70;;;1.70;;
48285;SDS011;34102;47.716;10.296;2023-05-18T12:11:23;7.88;;;1.90;;
48285;SDS011;34102;47.716;10.296;2023-05-18T12:13:48;4.63;;;1.65;;
48285;SDS011;34102;47.716;10.296;2023-05-18T12:16:16;3.03;;;1.42;;
48285;SDS011;34102;47.716;10.296;2023-05-18T12:18:47;4.05;;;1.70;;
48285;SDS011;34102;47.716;10.296;2023-05-18T12:21:12;3.25;;;1.83;;
48285;SDS011;34102;47.716;10.296;2023-05-18T12:23:37;5.57;;;1.88;;
48285;SDS011;34102;47.716;10.296;2023-05-18T12:26:03;3.40;;;1.63;;
48285;SDS011;34102;47.716;10.296;2023-05-18T12:28:29;4.32;;;1.80;;
48285;SDS011;34102;47.716;10.296;2023-05-18T12:30:55;4.85;;;1.77;;
48285;SDS011;34102;47.716;10.296;2023-05-18T12:33:20;6.20;;;2.13;;
48285;SDS011;34102;47.716;10.296;2023-05-18T12:35:48;3.22;;;1.88;;
48285;SDS011;34102;47.716;10.296;2023-05-18T12:38:15;3.70;;;2.00;;
48285;SDS011;34102;47.716;10.296;2023-05-18T12:40:41;3.15;;;1.70;;
48285;SDS011;34102;47.716;10.296;2023-05-18T12:43:12;3.63;;;1.75;;
48285;SDS011;34102;47.716;10.296;2023-05-18T12:45:38;2.75;;;1.75;;
48285;SDS011;34102;47.716;10.296;2023-05-18T12:48:09;4.30;;;2.17;;
48285;SDS011;34102;47.716;10.296;2023-05-18T12:50:34;6.80;;;2.08;;
48285;SDS011;34102;47.716;10.296;2023-05-18T12:53:01;5.25;;;1.48;;
48285;SDS011;34102;47.716;10.296;2023-05-18T12:55:27;6.32;;;2.00;;
48285;SDS011;34102;47.716;10.296;2023-05-18T13:00:23;5.82;;;2.92;;
48285;SDS011;34102;47.716;10.296;2023-05-18T13:02:48;5.22;;;1.70;;
48285;SDS011;34102;47.716;10.296;2023-05-18T13:05:14;4.22;;;1.63;;
48285;SDS011;34102;47.716;10.296;2023-05-18T13:07:44;4.93;;;2.03;;
48285;SDS011;34102;47.716;10.296;2023-05-18T13:10:11;4.68;;;2.17;;
48285;SDS011;34102;47.716;10.296;2023-05-18T13:12:41;6.22;;;2.00;;
48285;SDS011;34102;47.716;10.296;2023-05-18T13:15:12;3.95;;;2.00;;
48285;SDS011;34102;47.716;10.296;2023-05-18T13:17:38;5.15;;;2.05;;
48285;SDS011;34102;47.716;10.296;2023-05-18T13:20:12;3.25;;;1.70;;
48285;SDS011;34102;47.716;10.296;2023-05-18T13:22:49;3.35;;;1.52;;
48285;SDS011;34102;47.716;10.296;2023-05-18T13:25:27;3.92;;;1.65;;
48285;SDS011;34102;47.716;10.296;2023-05-18T13:27:52;4.90;;;2.05;;
48285;SDS011;34102;47.716;10.296;2023-05-18T13:30:19;6.93;;;1.70;;
48285;SDS011;34102;47.716;10.296;2023-05-18T13:32:48;3.67;;;1.95;;
48285;SDS011;34102;47.716;10.296;2023-05-18T13:35:15;4.18;;;2.17;;
48285;SDS011;34102;47.716;10.296;2023-05-18T13:37:45;5.43;;;2.40;;
48285;SDS011;34102;47.716;10.296;2023-05-18T13:40:20;5.22;;;2.08;;
48285;SDS011;34102;47.716;10.296;2023-05-18T13:42:45;3.20;;;1.70;;
48285;SDS011;34102;47.716;10.296;2023-05-18T13:45:11;3.40;;;1.80;;
48285;SDS011;34102;47.716;10.296;2023-05-18T13:47:42;4.68;;;1.92;;
48285;SDS011;34102;47.716;10.296;2023-05-18T13:50:09;6.25;;;2.92;;
48285;SDS011;34102;47.716;10.296;2023-05-18T13:52:37;7.65;;;2.38;;
48285;SDS011;34102;47.716;10.296;2023-05-18T13:55:03;4.07;;;2.20;;
48285;SDS011;34102;47.716;10.296;2023-05-18T13:57:29;4.47;;;2.00;;
48285;SDS011;34102;47.716;10.296;2023-05-18T13:59:56;4.55;;;1.98;;
48285;SDS011;34102;47.716;10.296;2023-05-18T14:02:23;3.70;;;2.20;;
48285;SDS011;34102;47.716;10.296;2023-05-18T14:04:48;9.50;;;2.30;;
48285;SDS011;34102;47.716;10.296;2023-05-18T14:07:16;3.70;;;2.08;;
48285;SDS011;34102;47.716;10.296;2023-05-18T14:09:42;6.63;;;2.20;;
48285;SDS011;34102;47.716;10.296;2023-05-18T14:12:07;3.78;;;1.77;;
48285;SDS011;34102;47.716;10.296;2023-05-18T14:14:35;4.40;;;2.28;;
48285;SDS011;34102;47.716;10.296;2023-05-18T14:17:00;5.07;;;2.67;;
48285;SDS011;34102;47.716;10.296;2023-05-18T14:19:26;6.65;;;2.35;;
48285;SDS011;34102;47.716;10.296;2023-05-18T14:21:52;4.85;;;1.80;;
48285;SDS011;34102;47.716;10.296;2023-05-18T14:24:18;5.78;;;2.35;;
48285;SDS011;34102;47.716;10.296;2023-05-18T14:26:49;6.88;;;2.50;;
48285;SDS011;34102;47.716;10.296;2023-05-18T14:29:17;8.05;;;2.28;;
48285;SDS011;34102;47.716;10.296;2023-05-18T14:31:42;5.90;;;2.67;;
48285;SDS011;34102;47.716;10.296;2023-05-18T14:34:08;4.32;;;1.98;;
48285;SDS011;34102;47.716;10.296;2023-05-18T14:36:33;6.10;;;2.25;;
48285;SDS011;34102;47.716;10.296;2023-05-18T14:38:59;4.88;;;1.70;;
48285;SDS011;34102;47.716;10.296;2023-05-18T14:41:24;5.22;;;2.30;;
48285;SDS011;34102;47.716;10.296;2023-05-18T14:43:49;6.07;;;2.42;;
48285;SDS011;34102;47.716;10.296;2023-05-18T14:46:17;4.90;;;2.15;;
48285;SDS011;34102;47.716;10.296;2023-05-18T14:48:43;5.45;;;2.17;;
48285;SDS011;34102;47.716;10.296;2023-05-18T14:51:09;4.75;;;2.60;;
48285;SDS011;34102;47.716;10.296;2023-05-18T14:53:34;4.95;;;2.15;;
48285;SDS011;34102;47.716;10.296;2023-05-18T14:56:00;5.50;;;2.35;;
48285;SDS011;34102;47.716;10.296;2023-05-18T14:58:30;5.80;;;2.30;;
48285;SDS011;34102;47.716;10.296;2023-05-18T15:00:55;4.40;;;2.08;;
48285;SDS011;34102;47.716;10.296;2023-05-18T15:03:21;5.43;;;2.28;;
48285;SDS011;34102;47.716;10.296;2023-05-18T15:05:46;3.70;;;2.03;;
48285;SDS011;34102;47.716;10.296;2023-05-18T15:08:11;6.65;;;2.03;;
48285;SDS011;34102;47.716;10.296;2023-05-18T15:10:40;4.82;;;2.13;;
48285;SDS011;34102;47.716;10.296;2023-05-18T15:13:23;5.65;;;2.75;;
48285;SDS011;34102;47.716;10.296;2023-05-18T15:15:48;7.32;;;2.28;;
48285;SDS011;34102;47.716;10.296;2023-05-18T15:18:17;4.95;;;1.60;;
48285;SDS011;34102;47.716;10.296;2023-05-18T15:20:42;7.05;;;2.45;;
48285;SDS011;34102;47.716;10.296;2023-05-18T15:23:17;6.13;;;2.63;;
48285;SDS011;34102;47.716;10.296;2023-05-18T15:25:51;7.07;;;2.97;;
48285;SDS011;34102;47.716;10.296;2023-05-18T15:28:25;4.80;;;2.05;;
48285;SDS011;34102;47.716;10.296;2023-05-18T15:30:51;5.45;;;2.08;;
48285;SDS011;34102;47.716;10.296;2023-05-18T15:33:44;6.18;;;1.65;;
48285;SDS011;34102;47.716;10.296;2023-05-18T15:36:19;3.50;;;2.15;;
48285;SDS011;34102;47.716;10.296;2023-05-18T15:38:58;7.05;;;1.92;;
48285;SDS011;34102;47.716;10.296;2023-05-18T15:41:23;5.43;;;1.95;;
48285;SDS011;34102;47.716;10.296;2023-05-18T15:43:50;5.47;;;2.10;;